sensor_id;sensor_type;location;lat;lon;timestamp;P1;durP1;ratioP1;P2;durP2;ratioP2
65130;SDS011;51709;54.912;8.316;2023-03-14T00:04:42;41.83;;;8.52;;
65130;SDS011;51709;54.912;8.316;2023-03-14T00:10:07;50.00;;;8.10;;
65130;SDS011;51709;54.912;8.316;2023-03-14T00:15:31;48.80;;;9.30;;
65130;SDS011;51709;54.912;8.316;2023-03-14T00:20:57;30.30;;;6.22;;
65130;SDS011;51709;54.912;8.316;2023-03-14T00:26:19;27.77;;;6.38;;
65130;SDS011;51709;54.912;8.316;2023-03-14T00:31:40;54.92;;;10.10;;
65130;SDS011;51709;54.912;8.316;2023-03-14T00:37:02;44.40;;;8.18;;
65130;SDS011;51709;54.912;8.316;2023-03-14T00:42:22;50.33;;;7.97;;
65130;SDS011;51709;54.912;8.316;2023-03-14T00:47:43;33.13;;;5.05;;
65130;SDS011;51709;54.912;8.316;2023-03-14T00:53:06;36.13;;;6.70;;
65130;SDS011;51709;54.912;8.316;2023-03-14T00:58:27;31.05;;;6.05;;
65130;SDS011;51709;54.912;8.316;2023-03-14T01:03:49;43.92;;;7.28;;
65130;SDS011;51709;54.912;8.316;2023-03-14T01:09:11;29.90;;;6.07;;
65130;SDS011;51709;54.912;8.316;2023-03-14T01:14:32;66.47;;;9.43;;
65130;SDS011;51709;54.912;8.316;2023-03-14T01:19:52;38.50;;;7.85;;
65130;SDS011;51709;54.912;8.316;2023-03-14T01:25:14;45.55;;;8.25;;
65130;SDS011;51709;54.912;8.316;2023-03-14T01:30:36;55.47;;;7.97;;
65130;SDS011;51709;54.912;8.316;2023-03-14T01:35:57;62.88;;;8.18;;
65130;SDS011;51709;54.912;8.316;2023-03-14T01:41:19;51.90;;;8.50;;
65130;SDS011;51709;54.912;8.316;2023-03-14T01:46:43;35.70;;;6.68;;
65130;SDS011;51709;54.912;8.316;2023-03-14T01:57:33;44.38;;;8.15;;
65130;SDS011;51709;54.912;8.316;2023-03-14T02:03:02;44.95;;;6.53;;
65130;SDS011;51709;54.912;8.316;2023-03-14T02:08:28;34.60;;;6.88;;
65130;SDS011;51709;54.912;8.316;2023-03-14T02:13:53;69.22;;;8.45;;
65130;SDS011;51709;54.912;8.316;2023-03-14T02:25:37;53.25;;;8.30;;
65130;SDS011;51709;54.912;8.316;2023-03-14T02:31:04;45.22;;;7.60;;
65130;SDS011;51709;54.912;8.316;2023-03-14T02:36:27;43.75;;;6.32;;
65130;SDS011;51709;54.912;8.316;2023-03-14T02:41:50;34.83;;;6.70;;
65130;SDS011;51709;54.912;8.316;2023-03-14T02:47:12;22.17;;;6.03;;
65130;SDS011;51709;54.912;8.316;2023-03-14T02:52:33;49.00;;;7.82;;
65130;SDS011;51709;54.912;8.316;2023-03-14T02:57:54;28.30;;;5.22;;
65130;SDS011;51709;54.912;8.316;2023-03-14T03:10:19;26.55;;;5.63;;
65130;SDS011;51709;54.912;8.316;2023-03-14T03:15:40;26.20;;;4.78;;
65130;SDS011;51709;54.912;8.316;2023-03-14T03:21:02;27.52;;;5.70;;
65130;SDS011;51709;54.912;8.316;2023-03-14T03:26:24;30.02;;;5.85;;
65130;SDS011;51709;54.912;8.316;2023-03-14T03:31:44;48.17;;;5.72;;
65130;SDS011;51709;54.912;8.316;2023-03-14T03:37:06;33.83;;;5.60;;
65130;SDS011;51709;54.912;8.316;2023-03-14T03:42:31;44.72;;;6.45;;
65130;SDS011;51709;54.912;8.316;2023-03-14T03:47:53;28.00;;;5.28;;
65130;SDS011;51709;54.912;8.316;2023-03-14T03:53:15;24.25;;;4.90;;
65130;SDS011;51709;54.912;8.316;2023-03-14T03:58:52;19.00;;;4.55;;
65130;SDS011;51709;54.912;8.316;2023-03-14T04:04:13;30.63;;;5.85;;
65130;SDS011;51709;54.912;8.316;2023-03-14T04:09:34;18.90;;;4.97;;
65130;SDS011;51709;54.912;8.316;2023-03-14T04:15:11;28.05;;;5.25;;
65130;SDS011;51709;54.912;8.316;2023-03-14T04:20:38;32.53;;;5.35;;
65130;SDS011;51709;54.912;8.316;2023-03-14T04:25:59;27.50;;;5.65;;
65130;SDS011;51709;54.912;8.316;2023-03-14T04:31:21;26.05;;;5.95;;
65130;SDS011;51709;54.912;8.316;2023-03-14T04:36:42;30.80;;;5.95;;
65130;SDS011;51709;54.912;8.316;2023-03-14T04:42:09;24.75;;;6.28;;
65130;SDS011;51709;54.912;8.316;2023-03-14T04:47:31;35.10;;;7.03;;
65130;SDS011;51709;54.912;8.316;2023-03-14T04:52:52;24.20;;;5.20;;
65130;SDS011;51709;54.912;8.316;2023-03-14T04:58:13;27.55;;;4.93;;
65130;SDS011;51709;54.912;8.316;2023-03-14T05:03:35;22.45;;;4.88;;
65130;SDS011;51709;54.912;8.316;2023-03-14T05:09:08;32.20;;;5.25;;
65130;SDS011;51709;54.912;8.316;2023-03-14T05:15:01;31.05;;;5.50;;
65130;SDS011;51709;54.912;8.316;2023-03-14T05:20:24;29.50;;;4.95;;
65130;SDS011;51709;54.912;8.316;2023-03-14T05:26:11;15.40;;;2.30;;
65130;SDS011;51709;54.912;8.316;2023-03-14T05:31:45;13.90;;;2.88;;
65130;SDS011;51709;54.912;8.316;2023-03-14T05:37:38;13.85;;;3.90;;
65130;SDS011;51709;54.912;8.316;2023-03-14T05:43:11;20.63;;;2.47;;
65130;SDS011;51709;54.912;8.316;2023-03-14T05:48:48;13.68;;;2.28;;
65130;SDS011;51709;54.912;8.316;2023-03-14T05:54:37;12.27;;;2.33;;
65130;SDS011;51709;54.912;8.316;2023-03-14T06:00:16;6.38;;;1.73;;
65130;SDS011;51709;54.912;8.316;2023-03-14T06:05:49;9.82;;;1.67;;
65130;SDS011;51709;54.912;8.316;2023-03-14T06:11:13;4.40;;;1.45;;
65130;SDS011;51709;54.912;8.316;2023-03-14T06:16:34;4.32;;;1.50;;
65130;SDS011;51709;54.912;8.316;2023-03-14T06:21:54;14.60;;;2.10;;
65130;SDS011;51709;54.912;8.316;2023-03-14T06:27:18;3.67;;;1.00;;
65130;SDS011;51709;54.912;8.316;2023-03-14T06:32:39;13.10;;;1.30;;
65130;SDS011;51709;54.912;8.316;2023-03-14T06:38:03;3.45;;;1.02;;
65130;SDS011;51709;54.912;8.316;2023-03-14T06:43:24;5.45;;;0.57;;
65130;SDS011;51709;54.912;8.316;2023-03-14T06:48:45;4.25;;;0.82;;
65130;SDS011;51709;54.912;8.316;2023-03-14T06:54:06;0.80;;;0.50;;
65130;SDS011;51709;54.912;8.316;2023-03-14T06:59:27;1.73;;;0.82;;
65130;SDS011;51709;54.912;8.316;2023-03-14T07:04:48;4.60;;;1.27;;
65130;SDS011;51709;54.912;8.316;2023-03-14T07:10:10;4.07;;;1.05;;
65130;SDS011;51709;54.912;8.316;2023-03-14T07:15:32;2.38;;;0.73;;
65130;SDS011;51709;54.912;8.316;2023-03-14T07:20:58;1.20;;;0.95;;
65130;SDS011;51709;54.912;8.316;2023-03-14T07:26:18;9.40;;;1.33;;
65130;SDS011;51709;54.912;8.316;2023-03-14T07:31:43;16.58;;;1.67;;
65130;SDS011;51709;54.912;8.316;2023-03-14T07:37:04;6.20;;;1.10;;
65130;SDS011;51709;54.912;8.316;2023-03-14T07:42:25;6.25;;;1.30;;
65130;SDS011;51709;54.912;8.316;2023-03-14T07:48:05;7.80;;;1.83;;
65130;SDS011;51709;54.912;8.316;2023-03-14T07:53:25;14.90;;;1.85;;
65130;SDS011;51709;54.912;8.316;2023-03-14T07:58:46;17.38;;;3.38;;
65130;SDS011;51709;54.912;8.316;2023-03-14T08:04:08;11.48;;;1.90;;
65130;SDS011;51709;54.912;8.316;2023-03-14T08:09:29;16.98;;;3.40;;
65130;SDS011;51709;54.912;8.316;2023-03-14T08:14:50;13.48;;;1.77;;
65130;SDS011;51709;54.912;8.316;2023-03-14T08:20:11;14.40;;;3.30;;
65130;SDS011;51709;54.912;8.316;2023-03-14T08:25:33;20.85;;;2.45;;
65130;SDS011;51709;54.912;8.316;2023-03-14T08:30:56;11.70;;;2.45;;
65130;SDS011;51709;54.912;8.316;2023-03-14T08:36:18;20.95;;;3.08;;
65130;SDS011;51709;54.912;8.316;2023-03-14T08:41:43;24.23;;;2.88;;
65130;SDS011;51709;54.912;8.316;2023-03-14T08:47:04;16.30;;;2.22;;
65130;SDS011;51709;54.912;8.316;2023-03-14T08:52:25;11.20;;;1.58;;
65130;SDS011;51709;54.912;8.316;2023-03-14T08:57:46;12.93;;;2.10;;
65130;SDS011;51709;54.912;8.316;2023-03-14T09:03:06;17.20;;;2.80;;
65130;SDS011;51709;54.912;8.316;2023-03-14T09:08:27;20.60;;;3.03;;
65130;SDS011;51709;54.912;8.316;2023-03-14T09:13:47;14.02;;;2.38;;
65130;SDS011;51709;54.912;8.316;2023-03-14T09:19:08;23.67;;;2.83;;
65130;SDS011;51709;54.912;8.316;2023-03-14T09:24:29;18.42;;;3.35;;
65130;SDS011;51709;54.912;8.316;2023-03-14T09:29:50;11.80;;;2.80;;
65130;SDS011;51709;54.912;8.316;2023-03-14T09:35:11;8.65;;;1.40;;
65130;SDS011;51709;54.912;8.316;2023-03-14T09:40:36;12.52;;;2.30;;
65130;SDS011;51709;54.912;8.316;2023-03-14T09:45:58;17.80;;;3.10;;
65130;SDS011;51709;54.912;8.316;2023-03-14T09:51:22;8.32;;;1.13;;
65130;SDS011;51709;54.912;8.316;2023-03-14T09:56:44;14.30;;;2.53;;
65130;SDS011;51709;54.912;8.316;2023-03-14T10:07:55;6.70;;;3.17;;
65130;SDS011;51709;54.912;8.316;2023-03-14T10:18:45;15.15;;;2.70;;
65130;SDS011;51709;54.912;8.316;2023-03-14T10:29:31;15.52;;;3.40;;
65130;SDS011;51709;54.912;8.316;2023-03-14T10:35:06;10.88;;;2.05;;
65130;SDS011;51709;54.912;8.316;2023-03-14T10:40:37;26.17;;;3.08;;
65130;SDS011;51709;54.912;8.316;2023-03-14T10:46:11;9.20;;;2.10;;
65130;SDS011;51709;54.912;8.316;2023-03-14T10:51:55;10.68;;;2.58;;
65130;SDS011;51709;54.912;8.316;2023-03-14T10:57:20;6.20;;;2.00;;
65130;SDS011;51709;54.912;8.316;2023-03-14T11:08:35;12.77;;;2.50;;
65130;SDS011;51709;54.912;8.316;2023-03-14T11:14:15;7.97;;;2.20;;
65130;SDS011;51709;54.912;8.316;2023-03-14T11:19:52;27.13;;;3.92;;
65130;SDS011;51709;54.912;8.316;2023-03-14T11:25:22;8.50;;;3.63;;
65130;SDS011;51709;54.912;8.316;2023-03-14T11:30:55;20.17;;;3.00;;
65130;SDS011;51709;54.912;8.316;2023-03-14T11:36:28;11.20;;;2.83;;
65130;SDS011;51709;54.912;8.316;2023-03-14T11:42:01;11.65;;;2.83;;
65130;SDS011;51709;54.912;8.316;2023-03-14T11:47:32;12.93;;;4.15;;
65130;SDS011;51709;54.912;8.316;2023-03-14T11:53:08;17.30;;;4.13;;
65130;SDS011;51709;54.912;8.316;2023-03-14T11:58:34;15.95;;;3.85;;
65130;SDS011;51709;54.912;8.316;2023-03-14T12:04:07;17.77;;;3.15;;
65130;SDS011;51709;54.912;8.316;2023-03-14T12:10:01;9.32;;;3.53;;
65130;SDS011;51709;54.912;8.316;2023-03-14T12:15:23;15.27;;;3.30;;
65130;SDS011;51709;54.912;8.316;2023-03-14T12:20:53;15.30;;;3.20;;
65130;SDS011;51709;54.912;8.316;2023-03-14T12:26:17;20.60;;;3.80;;
65130;SDS011;51709;54.912;8.316;2023-03-14T12:37:45;12.70;;;3.72;;
65130;SDS011;51709;54.912;8.316;2023-03-14T12:43:23;11.02;;;2.95;;
65130;SDS011;51709;54.912;8.316;2023-03-14T12:49:03;9.85;;;3.05;;
65130;SDS011;51709;54.912;8.316;2023-03-14T13:00:19;12.25;;;3.08;;
65130;SDS011;51709;54.912;8.316;2023-03-14T13:05:51;18.25;;;3.00;;
65130;SDS011;51709;54.912;8.316;2023-03-14T13:11:20;12.45;;;2.67;;
65130;SDS011;51709;54.912;8.316;2023-03-14T13:16:41;16.55;;;3.80;;
65130;SDS011;51709;54.912;8.316;2023-03-14T13:22:04;22.50;;;3.83;;
65130;SDS011;51709;54.912;8.316;2023-03-14T13:27:33;16.55;;;3.95;;
65130;SDS011;51709;54.912;8.316;2023-03-14T13:32:55;14.23;;;3.78;;
65130;SDS011;51709;54.912;8.316;2023-03-14T13:38:18;15.75;;;3.05;;
65130;SDS011;51709;54.912;8.316;2023-03-14T13:43:41;18.50;;;3.13;;
65130;SDS011;51709;54.912;8.316;2023-03-14T13:49:05;10.55;;;2.85;;
65130;SDS011;51709;54.912;8.316;2023-03-14T13:54:30;17.60;;;3.55;;
65130;SDS011;51709;54.912;8.316;2023-03-14T13:59:58;17.27;;;3.53;;
65130;SDS011;51709;54.912;8.316;2023-03-14T14:05:25;9.77;;;3.40;;
65130;SDS011;51709;54.912;8.316;2023-03-14T14:10:47;12.35;;;3.28;;
65130;SDS011;51709;54.912;8.316;2023-03-14T14:16:10;17.88;;;3.63;;
65130;SDS011;51709;54.912;8.316;2023-03-14T14:21:31;14.52;;;3.08;;
65130;SDS011;51709;54.912;8.316;2023-03-14T14:26:53;13.90;;;3.28;;
65130;SDS011;51709;54.912;8.316;2023-03-14T14:32:18;10.60;;;3.17;;
65130;SDS011;51709;54.912;8.316;2023-03-14T14:37:41;12.80;;;2.60;;
65130;SDS011;51709;54.912;8.316;2023-03-14T14:43:03;17.10;;;2.88;;
65130;SDS011;51709;54.912;8.316;2023-03-14T14:48:26;17.40;;;2.72;;
65130;SDS011;51709;54.912;8.316;2023-03-14T14:53:48;19.45;;;3.10;;
65130;SDS011;51709;54.912;8.316;2023-03-14T14:59:18;11.57;;;3.22;;
65130;SDS011;51709;54.912;8.316;2023-03-14T15:04:41;10.95;;;2.42;;
65130;SDS011;51709;54.912;8.316;2023-03-14T15:10:02;10.98;;;2.63;;
65130;SDS011;51709;54.912;8.316;2023-03-14T15:15:23;15.13;;;2.75;;
65130;SDS011;51709;54.912;8.316;2023-03-14T15:20:44;9.13;;;2.85;;
65130;SDS011;51709;54.912;8.316;2023-03-14T15:26:16;10.75;;;2.72;;
65130;SDS011;51709;54.912;8.316;2023-03-14T15:31:40;9.38;;;2.13;;
65130;SDS011;51709;54.912;8.316;2023-03-14T15:37:01;18.85;;;3.47;;
65130;SDS011;51709;54.912;8.316;2023-03-14T15:42:27;16.42;;;2.58;;
65130;SDS011;51709;54.912;8.316;2023-03-14T15:47:47;23.15;;;3.65;;
65130;SDS011;51709;54.912;8.316;2023-03-14T15:53:08;16.23;;;2.90;;
65130;SDS011;51709;54.912;8.316;2023-03-14T16:38:44;14.85;;;2.88;;
65130;SDS011;51709;54.912;8.316;2023-03-14T16:44:05;8.50;;;1.42;;
65130;SDS011;51709;54.912;8.316;2023-03-14T16:49:25;10.40;;;1.95;;
65130;SDS011;51709;54.912;8.316;2023-03-14T16:54:46;11.50;;;2.17;;
65130;SDS011;51709;54.912;8.316;2023-03-14T17:00:07;27.25;;;2.63;;
65130;SDS011;51709;54.912;8.316;2023-03-14T17:05:31;20.47;;;2.63;;
65130;SDS011;51709;54.912;8.316;2023-03-14T17:10:52;16.63;;;3.30;;
65130;SDS011;51709;54.912;8.316;2023-03-14T17:16:13;22.25;;;3.75;;
65130;SDS011;51709;54.912;8.316;2023-03-14T17:21:33;20.13;;;2.95;;
65130;SDS011;51709;54.912;8.316;2023-03-14T17:26:54;11.15;;;2.22;;
65130;SDS011;51709;54.912;8.316;2023-03-14T17:32:14;11.20;;;2.17;;
65130;SDS011;51709;54.912;8.316;2023-03-14T17:37:36;14.65;;;2.28;;
65130;SDS011;51709;54.912;8.316;2023-03-14T17:42:56;10.88;;;1.40;;
65130;SDS011;51709;54.912;8.316;2023-03-14T17:48:17;16.42;;;2.20;;
65130;SDS011;51709;54.912;8.316;2023-03-14T17:53:38;10.85;;;2.60;;
65130;SDS011;51709;54.912;8.316;2023-03-14T17:58:59;8.85;;;3.03;;
65130;SDS011;51709;54.912;8.316;2023-03-14T18:04:20;28.50;;;4.15;;
65130;SDS011;51709;54.912;8.316;2023-03-14T18:09:41;13.27;;;2.67;;
65130;SDS011;51709;54.912;8.316;2023-03-14T18:15:02;5.07;;;2.45;;
65130;SDS011;51709;54.912;8.316;2023-03-14T18:20:23;25.40;;;4.32;;
65130;SDS011;51709;54.912;8.316;2023-03-14T18:25:44;11.77;;;1.95;;
65130;SDS011;51709;54.912;8.316;2023-03-14T18:31:08;7.72;;;2.50;;
65130;SDS011;51709;54.912;8.316;2023-03-14T18:36:30;22.95;;;2.83;;
65130;SDS011;51709;54.912;8.316;2023-03-14T18:41:51;8.98;;;1.98;;
65130;SDS011;51709;54.912;8.316;2023-03-14T18:47:12;11.05;;;2.20;;
65130;SDS011;51709;54.912;8.316;2023-03-14T18:52:33;13.02;;;1.70;;
65130;SDS011;51709;54.912;8.316;2023-03-14T18:57:54;10.82;;;2.58;;
65130;SDS011;51709;54.912;8.316;2023-03-14T19:03:14;25.98;;;3.35;;
65130;SDS011;51709;54.912;8.316;2023-03-14T19:08:35;18.77;;;2.40;;
65130;SDS011;51709;54.912;8.316;2023-03-14T19:13:57;16.60;;;3.55;;
65130;SDS011;51709;54.912;8.316;2023-03-14T19:19:19;17.25;;;2.55;;
65130;SDS011;51709;54.912;8.316;2023-03-14T19:24:40;7.75;;;1.73;;
65130;SDS011;51709;54.912;8.316;2023-03-14T19:30:01;11.23;;;1.75;;
65130;SDS011;51709;54.912;8.316;2023-03-14T19:35:22;15.68;;;2.42;;
65130;SDS011;51709;54.912;8.316;2023-03-14T19:40:43;11.18;;;2.10;;
65130;SDS011;51709;54.912;8.316;2023-03-14T19:46:04;15.95;;;2.55;;
65130;SDS011;51709;54.912;8.316;2023-03-14T19:51:25;6.38;;;1.77;;
65130;SDS011;51709;54.912;8.316;2023-03-14T19:56:46;21.73;;;3.42;;
65130;SDS011;51709;54.912;8.316;2023-03-14T20:02:11;9.85;;;2.28;;
65130;SDS011;51709;54.912;8.316;2023-03-14T20:07:34;18.80;;;2.58;;
65130;SDS011;51709;54.912;8.316;2023-03-14T20:12:55;8.43;;;2.47;;
65130;SDS011;51709;54.912;8.316;2023-03-14T20:18:19;3.58;;;1.05;;
65130;SDS011;51709;54.912;8.316;2023-03-14T20:23:42;15.50;;;1.75;;
65130;SDS011;51709;54.912;8.316;2023-03-14T20:29:03;19.40;;;2.08;;
65130;SDS011;51709;54.912;8.316;2023-03-14T20:34:24;8.00;;;1.77;;
65130;SDS011;51709;54.912;8.316;2023-03-14T20:39:46;19.35;;;2.33;;
65130;SDS011;51709;54.912;8.316;2023-03-14T20:45:06;25.35;;;3.83;;
65130;SDS011;51709;54.912;8.316;2023-03-14T20:50:27;25.90;;;3.25;;
65130;SDS011;51709;54.912;8.316;2023-03-14T20:55:48;10.18;;;3.05;;
65130;SDS011;51709;54.912;8.316;2023-03-14T21:01:09;20.63;;;3.22;;
65130;SDS011;51709;54.912;8.316;2023-03-14T21:06:30;17.63;;;2.65;;
65130;SDS011;51709;54.912;8.316;2023-03-14T21:11:51;23.20;;;3.17;;
65130;SDS011;51709;54.912;8.316;2023-03-14T21:17:14;17.73;;;2.75;;
65130;SDS011;51709;54.912;8.316;2023-03-14T21:22:34;18.83;;;2.38;;
65130;SDS011;51709;54.912;8.316;2023-03-14T21:27:55;13.02;;;3.28;;
65130;SDS011;51709;54.912;8.316;2023-03-14T21:33:16;20.13;;;3.03;;
65130;SDS011;51709;54.912;8.316;2023-03-14T21:38:37;14.05;;;2.42;;
65130;SDS011;51709;54.912;8.316;2023-03-14T21:43:58;5.55;;;2.10;;
65130;SDS011;51709;54.912;8.316;2023-03-14T21:49:18;18.05;;;2.28;;
65130;SDS011;51709;54.912;8.316;2023-03-14T21:54:39;10.65;;;2.13;;
65130;SDS011;51709;54.912;8.316;2023-03-14T22:00:02;19.67;;;3.97;;
65130;SDS011;51709;54.912;8.316;2023-03-14T22:05:25;16.48;;;2.05;;
65130;SDS011;51709;54.912;8.316;2023-03-14T22:10:47;20.35;;;2.50;;
65130;SDS011;51709;54.912;8.316;2023-03-14T22:16:11;21.60;;;3.28;;
65130;SDS011;51709;54.912;8.316;2023-03-14T22:21:32;4.47;;;1.55;;
65130;SDS011;51709;54.912;8.316;2023-03-14T22:26:53;2.80;;;0.65;;
65130;SDS011;51709;54.912;8.316;2023-03-14T22:32:14;3.30;;;1.00;;
65130;SDS011;51709;54.912;8.316;2023-03-14T22:37:35;20.90;;;4.30;;
65130;SDS011;51709;54.912;8.316;2023-03-14T22:42:56;17.42;;;2.20;;
65130;SDS011;51709;54.912;8.316;2023-03-14T22:48:16;8.90;;;1.55;;
65130;SDS011;51709;54.912;8.316;2023-03-14T22:53:38;16.85;;;3.85;;
65130;SDS011;51709;54.912;8.316;2023-03-14T22:58:58;9.77;;;2.08;;
65130;SDS011;51709;54.912;8.316;2023-03-14T23:04:20;11.85;;;2.03;;
65130;SDS011;51709;54.912;8.316;2023-03-14T23:09:40;11.10;;;2.40;;
65130;SDS011;51709;54.912;8.316;2023-03-14T23:15:01;11.70;;;1.92;;
65130;SDS011;51709;54.912;8.316;2023-03-14T23:20:21;38.38;;;6.03;;
65130;SDS011;51709;54.912;8.316;2023-03-14T23:25:43;11.35;;;2.30;;
65130;SDS011;51709;54.912;8.316;2023-03-14T23:31:14;14.45;;;2.30;;
65130;SDS011;51709;54.912;8.316;2023-03-14T23:36:34;7.43;;;1.50;;
65130;SDS011;51709;54.912;8.316;2023-03-14T23:41:58;3.50;;;0.93;;
65130;SDS011;51709;54.912;8.316;2023-03-14T23:47:19;14.80;;;2.75;;
65130;SDS011;51709;54.912;8.316;2023-03-14T23:52:39;8.05;;;1.92;;
65130;SDS011;51709;54.912;8.316;2023-03-14T23:58:00;17.35;;;2.85;;
